Time;durP1;ratioP1;P1;durP2;ratioP2;P2;SDS_P1;SDS_P2;PMS_P1;PMS_P2;Temp;Humidity;BMP_temperature;BMP_pressure;BME280_temperature;BME280_humidity;BME280_pressure;Samples;Min_cycle;Max_cycle;Signal;HPM_P1;HPM_P2
2022/07/08 00:01:35;;;;;;;5.63;3.00;;;17.50;74.30;;;;;;5086352;28;20816;-73
2022/07/08 00:04:01;;;;;;;7.87;3.63;;;17.30;74.80;;;;;;5086529;28;20199;-73
2022/07/08 00:06:27;;;;;;;10.60;3.67;;;17.40;74.90;;;;;;5088060;28;20424;-73
2022/07/08 00:08:52;;;;;;;7.03;3.00;;;17.20;75.20;;;;;;5070483;28;20214;-73
2022/07/08 00:11:18;;;;;;;8.30;3.70;;;17.20;75.40;;;;;;5084561;28;20648;-74
2022/07/08 00:13:43;;;;;;;13.87;4.13;;;17.30;75.20;;;;;;5087072;28;20224;-74
2022/07/08 00:16:09;;;;;;;6.50;3.70;;;17.40;74.80;;;;;;5088281;28;20211;-73
2022/07/08 00:18:35;;;;;;;10.33;3.23;;;17.30;74.90;;;;;;5084624;28;20635;-73
2022/07/08 00:21:01;;;;;;;10.73;3.40;;;17.10;75.50;;;;;;5090004;28;20187;-72
2022/07/08 00:23:26;;;;;;;6.53;3.40;;;17.10;75.70;;;;;;5077372;28;20541;-74
2022/07/08 00:25:52;;;;;;;10.27;3.27;;;17.00;75.20;;;;;;5064566;28;20278;-72
2022/07/08 00:28:17;;;;;;;8.57;3.80;;;16.70;72.40;;;;;;5085170;28;20560;-73
2022/07/08 00:30:43;;;;;;;7.13;3.87;;;16.70;72.70;;;;;;5086127;28;20239;-72
2022/07/08 00:33:09;;;;;;;13.70;3.97;;;16.60;71.30;;;;;;5086523;28;20594;-72
2022/07/08 00:35:34;;;;;;;14.10;4.20;;;16.60;71.30;;;;;;5088691;28;20568;-74
2022/07/08 00:38:00;;;;;;;5.50;3.60;;;16.50;71.40;;;;;;5091438;28;20220;-74
2022/07/08 00:40:26;;;;;;;7.93;3.73;;;16.60;71.30;;;;;;5072385;28;20228;-73
2022/07/08 00:42:52;;;;;;;7.47;3.40;;;16.50;71.60;;;;;;5082357;28;20262;-73
2022/07/08 00:45:18;;;;;;;7.20;3.50;;;16.40;71.70;;;;;;5085903;28;20187;-73
2022/07/08 00:47:44;;;;;;;10.13;4.43;;;16.40;72.10;;;;;;5081088;28;20505;-74
2022/07/08 00:50:11;;;;;;;7.03;3.70;;;16.40;72.30;;;;;;5073941;28;20185;-73
2022/07/08 00:52:41;;;;;;;7.23;4.37;;;16.20;73.00;;;;;;5077937;28;20468;-72
2022/07/08 00:55:09;;;;;;;7.03;4.40;;;16.20;73.30;;;;;;5084727;28;20465;-74
2022/07/08 00:57:37;;;;;;;7.13;4.63;;;16.20;73.30;;;;;;5081069;28;20413;-74
2022/07/08 01:00:04;;;;;;;10.10;4.67;;;16.10;73.60;;;;;;5086885;28;20455;-74
2022/07/08 01:02:29;;;;;;;7.50;4.40;;;16.20;73.90;;;;;;5082105;28;20971;-74
2022/07/08 01:04:55;;;;;;;6.23;4.20;;;16.20;73.90;;;;;;5085222;28;20425;-74
2022/07/08 01:07:22;;;;;;;9.77;4.23;;;16.20;74.20;;;;;;5078414;28;20206;-73
2022/07/08 01:09:48;;;;;;;7.33;4.70;;;16.20;74.50;;;;;;5083215;28;20182;-73
2022/07/08 01:12:14;;;;;;;10.70;4.70;;;16.20;74.20;;;;;;5087330;28;20463;-73
2022/07/08 01:14:40;;;;;;;10.93;4.97;;;16.00;74.60;;;;;;5090366;28;20214;-74
2022/07/08 01:17:06;;;;;;;7.43;4.60;;;16.10;74.50;;;;;;5098078;28;20180;-73
2022/07/08 01:19:34;;;;;;;10.13;4.73;;;15.90;74.50;;;;;;5097557;28;20939;-73
2022/07/08 01:22:00;;;;;;;11.17;5.23;;;16.00;74.20;;;;;;5094365;28;20293;-73
2022/07/08 01:24:26;;;;;;;8.60;4.53;;;15.90;74.00;;;;;;5088230;28;20821;-72
2022/07/08 01:26:52;;;;;;;8.90;4.97;;;15.80;73.50;;;;;;5074438;28;20187;-73
2022/07/08 01:29:17;;;;;;;6.90;4.77;;;15.80;73.70;;;;;;5083223;28;20818;-74
2022/07/08 01:31:43;;;;;;;12.33;5.40;;;15.50;74.30;;;;;;5082785;28;20494;-73
2022/07/08 01:34:09;;;;;;;7.03;4.50;;;15.60;74.00;;;;;;5083429;28;20184;-72
2022/07/08 01:36:34;;;;;;;10.83;5.00;;;15.60;73.50;;;;;;5093509;28;20231;-75
2022/07/08 01:39:00;;;;;;;7.60;5.33;;;15.60;73.50;;;;;;5079899;28;20204;-73
2022/07/08 01:41:25;;;;;;;10.17;5.00;;;15.60;72.90;;;;;;5081936;28;20171;-72
2022/07/08 01:43:51;;;;;;;5.40;4.57;;;15.50;73.50;;;;;;5082079;28;20205;-73
2022/07/08 01:46:17;;;;;;;8.23;4.57;;;15.40;73.50;;;;;;5091058;28;20549;-73
2022/07/08 01:48:42;;;;;;;17.60;5.77;;;15.40;73.60;;;;;;5079719;28;20184;-73
2022/07/08 01:51:08;;;;;;;7.70;4.53;;;15.40;73.60;;;;;;5089614;28;20222;-73
2022/07/08 01:53:34;;;;;;;6.13;3.97;;;15.30;73.70;;;;;;5082891;28;20209;-73
2022/07/08 01:55:59;;;;;;;12.20;4.77;;;15.30;73.70;;;;;;5087454;28;20305;-74
2022/07/08 01:58:25;;;;;;;7.17;4.50;;;15.30;73.90;;;;;;5087460;28;20254;-73
2022/07/08 02:00:51;;;;;;;6.90;4.03;;;15.30;74.20;;;;;;5091198;28;20276;-72
2022/07/08 02:03:17;;;;;;;10.50;4.47;;;15.20;74.30;;;;;;5093713;28;20260;-72
2022/07/08 02:05:42;;;;;;;5.70;4.03;;;15.20;74.30;;;;;;5090684;28;20650;-73
2022/07/08 02:08:08;;;;;;;8.60;4.10;;;15.30;74.30;;;;;;5084518;28;20183;-72
2022/07/08 02:13:18;;;;;;;12.83;4.57;;;15.10;75.20;;;;;;5090727;28;20217;-72
2022/07/08 02:15:45;;;;;;;8.63;4.13;;;15.10;75.10;;;;;;5084245;28;20953;-73
2022/07/08 02:18:10;;;;;;;9.47;4.70;;;15.20;75.10;;;;;;5087665;28;20417;-73
2022/07/08 02:20:36;;;;;;;10.37;4.30;;;15.20;74.80;;;;;;5063837;28;20416;-73
2022/07/08 02:23:02;;;;;;;9.90;4.50;;;15.00;75.70;;;;;;5089933;28;20576;-73
2022/07/08 02:25:27;;;;;;;8.00;4.40;;;14.90;76.10;;;;;;5084337;28;20168;-73
2022/07/08 02:27:53;;;;;;;12.10;4.90;;;14.90;76.20;;;;;;5084081;28;20214;-72
2022/07/08 02:30:19;;;;;;;8.83;5.20;;;14.80;76.20;;;;;;5092923;28;20646;-73
2022/07/08 02:32:44;;;;;;;10.00;4.30;;;14.70;76.80;;;;;;5087054;28;20282;-72
2022/07/08 02:35:10;;;;;;;6.63;3.90;;;14.70;77.00;;;;;;5087830;28;20202;-73
2022/07/08 02:37:35;;;;;;;6.60;4.70;;;14.70;77.10;;;;;;5090785;28;20337;-72
2022/07/08 02:40:01;;;;;;;7.90;3.77;;;14.70;77.10;;;;;;5093142;28;20180;-73
2022/07/08 02:42:27;;;;;;;8.60;4.03;;;14.70;77.10;;;;;;5074500;28;20208;-72
2022/07/08 02:44:52;;;;;;;13.77;4.87;;;14.60;77.30;;;;;;5071263;28;20315;-72
2022/07/08 02:47:18;;;;;;;7.10;4.57;;;14.60;77.70;;;;;;5094264;28;20187;-74
2022/07/08 02:49:44;;;;;;;10.70;4.43;;;14.60;77.60;;;;;;5093454;28;20187;-74
2022/07/08 02:52:09;;;;;;;9.80;4.10;;;14.60;77.70;;;;;;5074994;28;20212;-73
2022/07/08 02:54:35;;;;;;;6.40;4.00;;;14.60;77.70;;;;;;5088788;28;20176;-72
2022/07/08 02:57:01;;;;;;;6.97;4.30;;;14.70;77.40;;;;;;5084211;28;20274;-73
2022/07/08 02:59:27;;;;;;;7.13;4.10;;;14.70;77.10;;;;;;5080375;28;20663;-72
2022/07/08 03:01:52;;;;;;;8.83;4.13;;;14.70;77.10;;;;;;5069484;28;20600;-72
2022/07/08 03:04:18;;;;;;;9.30;4.40;;;14.60;77.40;;;;;;5084725;28;20190;-72
2022/07/08 03:06:43;;;;;;;13.53;4.97;;;14.60;77.60;;;;;;5086420;28;20188;-72
2022/07/08 03:09:09;;;;;;;15.53;4.40;;;14.50;77.80;;;;;;5083542;28;20190;-73
2022/07/08 03:11:35;;;;;;;11.27;4.40;;;14.50;77.80;;;;;;5086675;28;20184;-71
2022/07/08 03:14:00;;;;;;;9.37;3.60;;;14.50;77.80;;;;;;5085571;28;20787;-73
2022/07/08 03:16:26;;;;;;;8.63;4.30;;;14.50;78.00;;;;;;5065881;28;20211;-73
2022/07/08 03:18:51;;;;;;;7.47;3.87;;;14.50;78.00;;;;;;5085325;28;20184;-72
2022/07/08 03:21:17;;;;;;;9.73;4.70;;;14.50;78.00;;;;;;5086950;28;20596;-72
2022/07/08 03:23:42;;;;;;;14.63;4.80;;;14.40;77.70;;;;;;5068698;28;20185;-72
2022/07/08 03:26:08;;;;;;;5.30;3.43;;;14.30;78.30;;;;;;5085248;28;20646;-72
2022/07/08 03:28:34;;;;;;;9.70;4.13;;;14.40;78.40;;;;;;5087314;28;20226;-73
2022/07/08 03:30:59;;;;;;;7.77;3.70;;;14.40;78.30;;;;;;5062016;28;20203;-72
2022/07/08 03:33:25;;;;;;;13.00;5.33;;;14.50;78.00;;;;;;5080274;28;20612;-73
2022/07/08 03:35:50;;;;;;;7.27;3.87;;;14.50;77.80;;;;;;5071101;28;20218;-74
2022/07/08 03:38:16;;;;;;;10.73;4.50;;;14.40;78.30;;;;;;5086126;28;20888;-73
2022/07/08 03:43:26;;;;;;;7.67;4.07;;;14.50;78.00;;;;;;5089559;28;20480;-73
2022/07/08 03:45:52;;;;;;;10.73;4.70;;;14.40;77.80;;;;;;5090848;28;20429;-73
2022/07/08 03:48:17;;;;;;;16.20;4.70;;;14.30;78.10;;;;;;5097304;28;20176;-71
2022/07/08 03:50:43;;;;;;;11.47;4.30;;;14.20;78.30;;;;;;5083778;28;20266;-73
2022/07/08 03:53:09;;;;;;;9.77;4.40;;;14.20;78.60;;;;;;5082801;28;20689;-72
2022/07/08 03:55:34;;;;;;;9.40;4.00;;;14.20;78.70;;;;;;5084297;28;20208;-73
2022/07/08 03:58:00;;;;;;;8.83;4.37;;;14.20;78.70;;;;;;5067825;28;20631;-72
2022/07/08 04:00:26;;;;;;;9.73;5.30;;;14.30;78.60;;;;;;5085430;28;20186;-73
2022/07/08 04:02:52;;;;;;;8.60;4.80;;;14.30;78.10;;;;;;5083226;28;20649;-73
2022/07/08 04:05:18;;;;;;;8.43;4.33;;;14.20;78.70;;;;;;5074763;28;20216;-72
2022/07/08 04:07:43;;;;;;;7.10;3.60;;;14.30;78.40;;;;;;5087511;28;20191;-72
2022/07/08 04:10:09;;;;;;;7.23;4.33;;;14.30;78.10;;;;;;5085861;28;20426;-72
2022/07/08 04:12:34;;;;;;;11.90;4.13;;;14.30;78.30;;;;;;5088056;28;20586;-73
2022/07/08 04:15:01;;;;;;;12.37;4.70;;;14.30;78.10;;;;;;5081390;28;20212;-72
2022/07/08 04:17:27;;;;;;;9.93;4.13;;;14.30;77.80;;;;;;5082740;28;20237;-73
2022/07/08 04:19:52;;;;;;;9.30;4.20;;;14.30;78.00;;;;;;5079665;28;20797;-74
2022/07/08 04:22:18;;;;;;;9.57;4.00;;;14.30;77.80;;;;;;5062347;28;20456;-72
2022/07/08 04:24:44;;;;;;;7.60;3.90;;;14.40;77.80;;;;;;5080058;28;20225;-73
2022/07/08 04:27:09;;;;;;;12.47;4.10;;;14.50;77.70;;;;;;5085967;28;20318;-72
2022/07/08 04:29:35;;;;;;;8.20;4.40;;;14.50;77.60;;;;;;5087198;28;20191;-73
2022/07/08 04:32:00;;;;;;;7.90;4.03;;;14.40;77.80;;;;;;5085988;28;20297;-73
2022/07/08 04:34:26;;;;;;;10.77;4.70;;;14.40;77.80;;;;;;5088114;28;20375;-73
2022/07/08 04:36:52;;;;;;;9.00;3.97;;;14.50;77.80;;;;;;5083525;28;20187;-73
2022/07/08 04:39:17;;;;;;;10.87;4.33;;;14.50;77.70;;;;;;5082430;28;20190;-74
2022/07/08 04:41:43;;;;;;;6.50;3.80;;;14.60;77.40;;;;;;5083543;28;20211;-72
2022/07/08 04:44:08;;;;;;;6.57;4.23;;;14.60;77.10;;;;;;5088370;28;20183;-73
2022/07/08 04:46:34;;;;;;;10.77;4.30;;;14.40;77.10;;;;;;5088481;28;20187;-73
2022/07/08 04:49:00;;;;;;;7.03;3.97;;;14.20;78.10;;;;;;5080309;28;20207;-72
2022/07/08 04:51:25;;;;;;;8.53;3.80;;;14.20;78.10;;;;;;5077925;28;20746;-73
2022/07/08 04:53:51;;;;;;;10.17;4.50;;;14.20;78.40;;;;;;5068954;28;20191;-73
2022/07/08 04:56:16;;;;;;;10.83;4.50;;;14.10;78.40;;;;;;5082160;28;20216;-72
2022/07/08 04:58:42;;;;;;;11.27;4.73;;;14.20;78.40;;;;;;5058682;28;20638;-73
2022/07/08 05:01:08;;;;;;;6.17;3.97;;;14.20;78.10;;;;;;5076296;28;20290;-72
2022/07/08 05:03:33;;;;;;;6.77;4.20;;;14.20;78.30;;;;;;5079152;28;20287;-73
2022/07/08 05:05:59;;;;;;;12.37;4.30;;;14.20;78.10;;;;;;5073457;28;20294;-73
2022/07/08 05:08:24;;;;;;;7.30;4.20;;;14.20;78.00;;;;;;5081699;28;20222;-73
2022/07/08 05:10:50;;;;;;;6.93;4.40;;;14.30;78.00;;;;;;5077924;28;20551;-72
2022/07/08 05:13:16;;;;;;;8.80;4.27;;;14.30;77.70;;;;;;5076503;28;20211;-73
2022/07/08 05:15:41;;;;;;;9.37;4.33;;;14.40;77.70;;;;;;5080958;28;20610;-73
2022/07/08 05:18:07;;;;;;;10.77;3.90;;;14.50;77.60;;;;;;5083283;28;20237;-73
2022/07/08 05:20:33;;;;;;;9.20;3.60;;;14.60;76.80;;;;;;5080210;28;20603;-73
2022/07/08 05:22:58;;;;;;;7.53;3.63;;;14.50;76.50;;;;;;5083798;28;20216;-74
2022/07/08 05:25:24;;;;;;;11.90;3.73;;;14.50;77.30;;;;;;5081774;28;20191;-73
2022/07/08 05:27:50;;;;;;;10.37;4.33;;;14.60;76.40;;;;;;5081399;28;20236;-72
2022/07/08 05:30:16;;;;;;;5.73;3.37;;;14.70;76.10;;;;;;5080913;28;20532;-74
2022/07/08 05:32:42;;;;;;;12.90;4.20;;;14.60;76.10;;;;;;5081523;28;20212;-73
2022/07/08 05:35:08;;;;;;;6.97;3.97;;;14.60;76.20;;;;;;5088419;28;20472;-74
2022/07/08 05:37:37;;;;;;;6.00;3.50;;;14.70;75.90;;;;;;5094088;28;20179;-73
2022/07/08 05:40:05;;;;;;;7.27;3.80;;;14.70;74.80;;;;;;5089757;28;20582;-74
2022/07/08 05:42:31;;;;;;;7.67;3.93;;;14.80;74.80;;;;;;5092674;28;20512;-72
2022/07/08 05:44:56;;;;;;;9.87;3.03;;;14.90;74.80;;;;;;5084981;28;20464;-73
2022/07/08 05:47:22;;;;;;;5.50;3.57;;;14.90;74.50;;;;;;5076557;28;20188;-73
2022/07/08 05:49:47;;;;;;;6.30;3.77;;;14.80;74.30;;;;;;5078876;28;20262;-73
2022/07/08 05:52:13;;;;;;;6.40;3.50;;;14.80;74.20;;;;;;5074628;28;20209;-73
2022/07/08 05:54:39;;;;;;;6.70;4.00;;;14.90;74.30;;;;;;5084288;28;20675;-73
2022/07/08 05:57:05;;;;;;;8.60;3.50;;;14.90;74.00;;;;;;5079737;28;20419;-72
2022/07/08 05:59:31;;;;;;;8.13;4.50;;;14.80;74.50;;;;;;5087709;28;20505;-72
2022/07/08 06:01:57;;;;;;;8.60;3.10;;;14.70;75.20;;;;;;5076243;28;20283;-72
2022/07/08 06:04:22;;;;;;;9.20;3.67;;;14.80;75.70;;;;;;5070054;28;20267;-72
2022/07/08 06:06:48;;;;;;;9.80;3.60;;;15.00;75.10;;;;;;5066886;28;20431;-72
2022/07/08 06:09:14;;;;;;;8.83;3.43;;;15.00;74.30;;;;;;5070768;28;20179;-73
2022/07/08 06:11:40;;;;;;;6.70;3.60;;;14.80;75.10;;;;;;5082409;28;20448;-73
2022/07/08 06:14:05;;;;;;;7.90;3.90;;;14.80;75.50;;;;;;5085077;28;20206;-73
2022/07/08 06:16:31;;;;;;;10.43;4.57;;;15.00;74.90;;;;;;5087778;28;20653;-72
2022/07/08 06:18:56;;;;;;;8.50;3.30;;;15.10;74.30;;;;;;5087277;28;20215;-73
2022/07/08 06:21:22;;;;;;;11.70;3.77;;;15.20;73.70;;;;;;5083741;28;20188;-73
2022/07/08 06:23:48;;;;;;;11.27;3.57;;;15.30;73.50;;;;;;5088909;28;20191;-73
2022/07/08 06:26:14;;;;;;;7.77;3.50;;;15.40;72.40;;;;;;5088147;28;20646;-73
2022/07/08 06:28:40;;;;;;;6.97;3.10;;;15.50;71.70;;;;;;5083514;28;20418;-73
2022/07/08 06:31:06;;;;;;;5.90;3.03;;;15.60;71.10;;;;;;5081988;28;20187;-73
2022/07/08 06:33:31;;;;;;;4.60;3.00;;;15.70;70.80;;;;;;5079108;28;20200;-72
2022/07/08 06:35:57;;;;;;;4.20;2.90;;;15.70;69.80;;;;;;5085287;28;20211;-73
2022/07/08 06:38:22;;;;;;;10.20;3.60;;;15.60;70.80;;;;;;5085438;28;20190;-73
2022/07/08 06:40:48;;;;;;;5.90;3.60;;;15.70;70.50;;;;;;5083322;28;20608;-73
2022/07/08 06:43:14;;;;;;;9.03;3.90;;;15.90;69.70;;;;;;5080101;28;20204;-73
2022/07/08 06:45:39;;;;;;;7.63;3.37;;;15.90;69.70;;;;;;5086754;28;20835;-74
2022/07/08 06:48:05;;;;;;;6.20;3.13;;;15.90;69.80;;;;;;5086705;28;20184;-73
2022/07/08 06:50:34;;;;;;;4.97;2.90;;;15.90;69.10;;;;;;5086683;28;20561;-73
2022/07/08 06:53:00;;;;;;;8.80;3.50;;;16.00;68.30;;;;;;5086226;28;20588;-73
2022/07/08 06:55:25;;;;;;;6.10;2.77;;;15.70;69.50;;;;;;5084926;28;20918;-73
2022/07/08 06:57:51;;;;;;;6.70;3.27;;;16.00;69.90;;;;;;5081953;28;20631;-73
2022/07/08 07:00:16;;;;;;;5.97;3.23;;;16.20;67.30;;;;;;5086410;28;20188;-73
2022/07/08 07:02:42;;;;;;;7.20;2.60;;;16.10;67.20;;;;;;5082615;28;20631;-73
2022/07/08 07:05:09;;;;;;;8.60;2.80;;;16.30;66.30;;;;;;5085770;28;20296;-72
2022/07/08 07:07:35;;;;;;;10.27;3.20;;;16.40;65.60;;;;;;5085510;28;20190;-74
2022/07/08 07:10:01;;;;;;;6.33;2.90;;;16.10;66.10;;;;;;5079766;28;20770;-73
2022/07/08 07:12:28;;;;;;;8.23;2.80;;;16.10;66.10;;;;;;5085137;28;20461;-71
2022/07/08 07:14:53;;;;;;;5.63;2.97;;;16.10;65.70;;;;;;5087653;28;20908;-73
2022/07/08 07:17:20;;;;;;;8.33;2.93;;;15.90;65.70;;;;;;5088919;28;20470;-72
2022/07/08 07:19:47;;;;;;;4.43;2.40;;;15.90;66.00;;;;;;5090416;28;20189;-72
2022/07/08 07:22:14;;;;;;;6.93;2.97;;;16.10;65.00;;;;;;5080088;28;20449;-73
2022/07/08 07:24:39;;;;;;;6.80;3.00;;;16.30;65.00;;;;;;5088922;28;20420;-72
2022/07/08 07:27:05;;;;;;;6.80;2.83;;;16.60;63.50;;;;;;5081656;28;20429;-72
2022/07/08 07:29:31;;;;;;;5.67;2.90;;;16.80;62.30;;;;;;5091164;28;20266;-72
2022/07/08 07:31:56;;;;;;;8.47;2.90;;;16.90;62.60;;;;;;5079178;28;20574;-73
2022/07/08 07:34:22;;;;;;;10.57;2.80;;;17.10;62.50;;;;;;5089913;28;20265;-73
2022/07/08 07:36:48;;;;;;;6.63;3.03;;;16.80;62.50;;;;;;5083732;28;20267;-73
2022/07/08 07:39:13;;;;;;;9.10;3.57;;;16.80;62.80;;;;;;5089896;28;20716;-71
2022/07/08 07:41:39;;;;;;;7.33;3.20;;;17.00;63.10;;;;;;5077281;28;20214;-72
2022/07/08 07:44:06;;;;;;;9.53;3.83;;;17.20;62.80;;;;;;5085144;28;20180;-72
2022/07/08 07:46:32;;;;;;;7.50;3.17;;;17.30;62.20;;;;;;5088231;28;20706;-72
2022/07/08 07:48:57;;;;;;;9.47;4.80;;;17.40;61.60;;;;;;5079626;28;20528;-73
2022/07/08 07:51:23;;;;;;;7.67;2.90;;;17.40;61.20;;;;;;5083407;28;21018;-73
2022/07/08 07:53:49;;;;;;;8.73;3.03;;;17.60;60.90;;;;;;5076659;28;20187;-72
2022/07/08 07:56:15;;;;;;;6.07;3.00;;;17.70;60.00;;;;;;5078563;28;20708;-72
2022/07/08 07:58:41;;;;;;;9.30;2.60;;;17.60;59.70;;;;;;5069136;28;20271;-74
2022/07/08 08:01:06;;;;;;;6.17;2.63;;;17.30;59.70;;;;;;5078501;28;20435;-72
2022/07/08 08:03:32;;;;;;;4.57;2.80;;;17.20;60.60;;;;;;5087599;28;20966;-72
2022/07/08 08:05:59;;;;;;;4.03;2.43;;;17.20;60.90;;;;;;5075458;28;20904;-72
2022/07/08 08:08:25;;;;;;;3.43;2.37;;;17.20;61.30;;;;;;5083593;28;20439;-72
2022/07/08 08:10:51;;;;;;;11.27;3.07;;;17.10;61.70;;;;;;5090021;28;20417;-72
2022/07/08 08:13:18;;;;;;;4.13;2.50;;;17.20;61.00;;;;;;5086826;28;20456;-74
2022/07/08 08:15:44;;;;;;;11.63;3.00;;;17.00;60.90;;;;;;5085691;28;20570;-75
2022/07/08 08:18:09;;;;;;;4.33;2.30;;;16.90;61.50;;;;;;5081500;28;20429;-72
2022/07/08 08:20:35;;;;;;;5.03;2.90;;;16.90;60.90;;;;;;5083853;28;20481;-73
2022/07/08 08:23:01;;;;;;;4.00;2.30;;;17.00;60.30;;;;;;5087206;28;20232;-74
2022/07/08 08:25:27;;;;;;;8.20;2.60;;;17.10;60.60;;;;;;5087567;28;20428;-73
2022/07/08 08:27:54;;;;;;;3.07;2.37;;;17.40;59.70;;;;;;5062144;28;20183;-74
2022/07/08 08:30:20;;;;;;;5.30;2.90;;;17.20;60.00;;;;;;5081287;28;20424;-72
2022/07/08 08:32:46;;;;;;;3.70;2.43;;;17.30;60.00;;;;;;5085768;28;20464;-72
2022/07/08 08:35:12;;;;;;;7.60;2.80;;;17.50;59.20;;;;;;5068578;28;21033;-72
2022/07/08 08:37:37;;;;;;;6.30;2.63;;;17.20;59.50;;;;;;5088249;28;20903;-73
2022/07/08 08:40:04;;;;;;;6.50;2.70;;;17.40;59.20;;;;;;5091216;28;20825;-73
2022/07/08 08:42:31;;;;;;;8.50;3.10;;;17.40;58.20;;;;;;5085771;28;20202;-72
2022/07/08 08:44:59;;;;;;;4.27;2.70;;;17.30;58.70;;;;;;5091337;28;20433;-73
2022/07/08 08:47:28;;;;;;;4.40;2.37;;;17.40;58.80;;;;;;5084587;28;20948;-74
2022/07/08 08:49:56;;;;;;;6.57;2.30;;;17.50;58.90;;;;;;5081474;28;20532;-73
2022/07/08 08:52:23;;;;;;;6.30;3.13;;;17.50;58.40;;;;;;5087103;28;20805;-73
2022/07/08 08:54:51;;;;;;;5.00;2.47;;;17.40;58.50;;;;;;5082097;28;20428;-73
2022/07/08 08:57:18;;;;;;;5.13;2.50;;;17.20;59.20;;;;;;5082082;28;21187;-71
2022/07/08 08:59:45;;;;;;;8.80;2.23;;;17.20;59.60;;;;;;5078462;28;20417;-73
2022/07/08 09:02:12;;;;;;;4.00;2.37;;;17.30;58.50;;;;;;5078978;28;20512;-71
2022/07/08 09:04:38;;;;;;;4.30;2.43;;;17.50;58.50;;;;;;5080638;28;20459;-75
2022/07/08 09:07:04;;;;;;;6.03;2.50;;;17.80;58.00;;;;;;5081750;28;20426;-73
2022/07/08 09:09:30;;;;;;;4.50;2.37;;;18.00;58.10;;;;;;5084457;28;20479;-72
2022/07/08 09:11:56;;;;;;;4.27;2.40;;;17.80;56.80;;;;;;5082418;28;20969;-76
2022/07/08 09:14:23;;;;;;;6.50;2.50;;;17.80;56.50;;;;;;5071411;28;20177;-75
2022/07/08 09:17:10;;;;;;;7.50;2.40;;;17.70;57.20;;;;;;5088091;28;20298;-74
2022/07/08 09:19:37;;;;;;;3.67;2.40;;;17.70;57.70;;;;;;5074996;28;21764;-73
2022/07/08 09:22:05;;;;;;;5.37;3.03;;;17.70;57.60;;;;;;5080218;28;20466;-76
2022/07/08 09:24:31;;;;;;;6.70;3.07;;;17.50;58.40;;;;;;5081963;28;20783;-74
2022/07/08 09:27:01;;;;;;;7.20;2.37;;;17.40;58.80;;;;;;5075534;28;20552;-73
2022/07/08 09:29:26;;;;;;;7.37;2.80;;;17.30;59.50;;;;;;5081389;28;20186;-74
2022/07/08 09:31:52;;;;;;;8.30;2.97;;;17.40;58.90;;;;;;5073431;28;20461;-73
2022/07/08 09:34:20;;;;;;;8.90;3.00;;;17.30;59.30;;;;;;5089979;28;20189;-74
2022/07/08 09:36:48;;;;;;;3.63;2.63;;;17.30;59.30;;;;;;5092439;28;20213;-73
2022/07/08 09:39:27;;;;;;;6.93;2.53;;;17.30;59.20;;;;;;5090489;28;20868;-71
2022/07/08 09:41:53;;;;;;;6.20;2.77;;;17.40;59.70;;;;;;5086424;28;20481;-73
2022/07/08 09:44:22;;;;;;;4.33;2.30;;;17.50;58.40;;;;;;5086462;28;20424;-72
2022/07/08 09:46:51;;;;;;;7.10;2.33;;;17.50;58.80;;;;;;5090487;28;20425;-72
2022/07/08 09:49:38;;;;;;;5.87;3.20;;;17.60;58.40;;;;;;5086742;28;20448;-71
2022/07/08 09:52:04;;;;;;;5.43;2.37;;;17.60;58.10;;;;;;5094215;28;20491;-72
2022/07/08 09:54:30;;;;;;;5.00;2.33;;;17.70;58.00;;;;;;5095992;28;20428;-72
2022/07/08 09:57:05;;;;;;;4.60;2.87;;;18.00;57.40;;;;;;5096162;28;20973;-72
2022/07/08 09:59:32;;;;;;;6.07;2.83;;;18.20;56.20;;;;;;5086581;28;20564;-73
2022/07/08 10:01:59;;;;;;;5.40;2.90;;;18.30;56.10;;;;;;5088133;28;20503;-73
2022/07/08 10:04:26;;;;;;;4.90;2.53;;;18.30;55.70;;;;;;5088132;28;20519;-73
2022/07/08 10:06:53;;;;;;;6.93;2.47;;;18.30;55.60;;;;;;5091270;28;20421;-73
2022/07/08 10:09:20;;;;;;;12.23;3.30;;;18.00;56.50;;;;;;5093377;28;20425;-74
2022/07/08 10:11:47;;;;;;;5.47;2.57;;;18.10;56.80;;;;;;5092255;28;20444;-72
2022/07/08 10:14:14;;;;;;;4.40;2.70;;;18.30;56.40;;;;;;5082320;28;20419;-74
2022/07/08 10:16:40;;;;;;;8.03;3.00;;;18.40;56.10;;;;;;5080214;28;20460;-74
2022/07/08 10:19:12;;;;;;;6.40;2.47;;;18.50;55.80;;;;;;5082581;28;20429;-72
2022/07/08 10:21:41;;;;;;;6.50;2.60;;;19.00;54.90;;;;;;5087217;28;20582;-74
2022/07/08 10:24:12;;;;;;;5.57;2.83;;;19.10;52.40;;;;;;5080522;28;20422;-73
2022/07/08 10:26:42;;;;;;;5.40;2.43;;;19.20;52.90;;;;;;5090529;28;20500;-73
2022/07/08 10:29:10;;;;;;;3.80;2.50;;;19.50;52.80;;;;;;5081953;28;20425;-73
2022/07/08 10:31:57;;;;;;;5.80;2.77;;;19.80;51.60;;;;;;5088682;28;20488;-75
2022/07/08 10:34:34;;;;;;;4.73;2.00;;;19.50;53.40;;;;;;5083586;28;20481;-74
2022/07/08 10:37:02;;;;;;;5.67;2.43;;;19.50;52.90;;;;;;5085335;28;20429;-74
2022/07/08 10:39:29;;;;;;;6.43;3.23;;;19.30;54.20;;;;;;5084494;28;20429;-74
2022/07/08 10:42:06;;;;;;;5.53;3.00;;;19.10;55.30;;;;;;5087520;28;20448;-72
2022/07/08 10:44:44;;;;;;;9.10;2.67;;;18.80;55.30;;;;;;5080761;28;20435;-74
2022/07/08 10:47:11;;;;;;;5.00;2.77;;;19.10;55.20;;;;;;5083194;28;20411;-74
2022/07/08 10:49:43;;;;;;;5.53;2.53;;;19.60;53.30;;;;;;5080324;28;20398;-73
2022/07/08 10:52:09;;;;;;;4.33;2.43;;;20.10;51.80;;;;;;5083186;28;20578;-74
2022/07/08 10:54:38;;;;;;;5.20;3.20;;;20.20;50.60;;;;;;5084332;28;20494;-73
2022/07/08 10:57:28;;;;;;;3.40;2.30;;;20.20;51.70;;;;;;5073331;28;20446;-74
2022/07/08 11:00:15;;;;;;;4.80;2.40;;;20.30;50.50;;;;;;5078263;28;20423;-75
2022/07/08 11:02:45;;;;;;;7.53;3.33;;;20.50;50.90;;;;;;5080560;28;20553;-72
2022/07/08 11:05:35;;;;;;;4.17;2.20;;;20.80;49.90;;;;;;5089325;28;20540;-72
2022/07/08 11:08:19;;;;;;;3.97;2.60;;;20.70;49.10;;;;;;5077715;28;20426;-74
2022/07/08 11:10:48;;;;;;;3.20;2.13;;;21.10;48.70;;;;;;5081926;28;20930;-73
2022/07/08 11:13:14;;;;;;;7.10;2.87;;;20.40;49.40;;;;;;5083952;28;20528;-72
2022/07/08 11:15:40;;;;;;;6.47;2.80;;;20.00;51.30;;;;;;5088972;28;20979;-74
2022/07/08 11:18:06;;;;;;;5.73;2.33;;;20.70;49.40;;;;;;5084106;28;20176;-74
2022/07/08 11:20:32;;;;;;;8.07;2.60;;;20.80;48.60;;;;;;5078015;28;20177;-74
2022/07/08 11:23:03;;;;;;;4.57;2.70;;;20.60;48.70;;;;;;5085015;28;20915;-72
2022/07/08 11:25:28;;;;;;;5.00;2.73;;;20.80;48.90;;;;;;5067285;28;20413;-72
2022/07/08 11:27:54;;;;;;;4.97;2.27;;;20.50;48.20;;;;;;5086772;28;20510;-72
2022/07/08 11:30:20;;;;;;;5.30;2.27;;;20.00;50.20;;;;;;5064360;28;20191;-75
2022/07/08 11:32:49;;;;;;;3.40;1.97;;;20.00;50.30;;;;;;5083088;28;20209;-71
2022/07/08 11:35:17;;;;;;;4.30;2.47;;;20.10;49.30;;;;;;5088373;28;20211;-74
2022/07/08 11:37:46;;;;;;;7.03;2.20;;;20.20;49.50;;;;;;5087308;28;21013;-72
2022/07/08 11:40:13;;;;;;;4.53;2.20;;;20.00;49.90;;;;;;5067083;28;20434;-73
2022/07/08 11:42:40;;;;;;;3.60;2.10;;;20.10;49.90;;;;;;5087103;28;20454;-74
2022/07/08 11:45:08;;;;;;;5.40;2.50;;;20.00;50.70;;;;;;5082914;28;20414;-73
2022/07/08 11:47:34;;;;;;;3.90;1.90;;;20.40;50.10;;;;;;5081683;28;20464;-72
2022/07/08 11:50:00;;;;;;;3.83;2.07;;;20.80;49.30;;;;;;5081672;28;20904;-73
2022/07/08 11:52:27;;;;;;;5.87;2.20;;;21.00;48.10;;;;;;5088708;28;20249;-73
2022/07/08 11:54:54;;;;;;;4.67;3.20;;;20.90;47.80;;;;;;5082879;28;20188;-73
2022/07/08 11:57:19;;;;;;;4.97;2.80;;;20.80;48.20;;;;;;5092855;28;20417;-72
2022/07/08 11:59:47;;;;;;;4.97;3.10;;;20.50;49.30;;;;;;5086524;28;20437;-73
2022/07/08 12:02:18;;;;;;;7.97;2.60;;;20.80;48.70;;;;;;5074357;28;1088451;-73
2022/07/08 12:04:45;;;;;;;6.10;3.33;;;20.80;49.10;;;;;;5097848;28;20200;-74
2022/07/08 12:07:24;;;;;;;3.90;2.67;;;20.90;48.10;;;;;;5088683;28;20426;-74
2022/07/08 12:10:03;;;;;;;4.43;2.50;;;20.90;47.50;;;;;;5085742;28;20499;-73
2022/07/08 12:12:33;;;;;;;7.03;2.40;;;21.00;47.90;;;;;;5084179;28;20998;-74
2022/07/08 12:15:16;;;;;;;5.10;2.40;;;20.20;49.30;;;;;;5085260;28;20491;-75
2022/07/08 12:17:55;;;;;;;10.23;2.53;;;20.90;47.90;;;;;;5082215;28;20853;-75
2022/07/08 12:20:34;;;;;;;5.90;2.50;;;21.20;47.40;;;;;;5083753;28;20423;-74
2022/07/08 12:23:00;;;;;;;6.23;2.37;;;21.30;47.50;;;;;;5075508;28;20630;-74
2022/07/08 12:25:25;;;;;;;2.63;2.10;;;21.10;47.80;;;;;;5084161;28;20423;-73
2022/07/08 12:28:03;;;;;;;8.97;2.57;;;20.90;48.60;;;;;;5085930;28;20838;-73
2022/07/08 12:30:30;;;;;;;4.80;2.40;;;21.30;47.70;;;;;;5077714;28;20610;-74
2022/07/08 12:33:00;;;;;;;3.63;2.40;;;21.30;47.90;;;;;;5086507;28;20493;-73
2022/07/08 12:35:34;;;;;;;8.03;2.30;;;21.40;47.90;;;;;;5082929;28;20499;-71
2022/07/08 12:38:07;;;;;;;5.63;2.33;;;21.30;48.30;;;;;;5074564;28;20808;-73
2022/07/08 12:40:43;;;;;;;6.83;2.57;;;21.40;47.70;;;;;;5060074;28;21013;-75
2022/07/08 12:43:11;;;;;;;3.57;2.30;;;21.80;46.90;;;;;;5083077;28;20491;-74
2022/07/08 12:45:37;;;;;;;5.30;2.10;;;21.70;46.60;;;;;;5081887;28;20422;-74
2022/07/08 12:48:03;;;;;;;5.10;2.50;;;21.70;47.00;;;;;;5065949;28;20785;-75
2022/07/08 12:50:31;;;;;;;9.73;3.40;;;21.70;46.70;;;;;;5079734;28;20439;-73